sensor_id;sensor_type;location;lat;lon;timestamp;P1;durP1;ratioP1;P2;durP2;ratioP2
11018;SDS011;5563;52.296;6.806;2023-04-12T00:00:43;6.63;;;2.60;;
11018;SDS011;5563;52.296;6.806;2023-04-12T00:03:17;7.45;;;2.75;;
11018;SDS011;5563;52.296;6.806;2023-04-12T00:05:46;5.78;;;2.92;;
11018;SDS011;5563;52.296;6.806;2023-04-12T00:08:20;6.05;;;2.70;;
11018;SDS011;5563;52.296;6.806;2023-04-12T00:10:59;5.75;;;2.63;;
11018;SDS011;5563;52.296;6.806;2023-04-12T00:13:34;6.18;;;2.22;;
11018;SDS011;5563;52.296;6.806;2023-04-12T00:16:07;6.75;;;2.10;;
11018;SDS011;5563;52.296;6.806;2023-04-12T00:18:41;5.65;;;2.30;;
11018;SDS011;5563;52.296;6.806;2023-04-12T00:21:07;7.13;;;2.45;;
11018;SDS011;5563;52.296;6.806;2023-04-12T00:23:42;9.75;;;2.60;;
11018;SDS011;5563;52.296;6.806;2023-04-12T00:26:17;8.57;;;2.92;;
11018;SDS011;5563;52.296;6.806;2023-04-12T00:28:43;8.05;;;2.80;;
11018;SDS011;5563;52.296;6.806;2023-04-12T00:31:10;6.43;;;2.70;;
11018;SDS011;5563;52.296;6.806;2023-04-12T00:33:50;6.72;;;2.50;;
11018;SDS011;5563;52.296;6.806;2023-04-12T00:36:17;6.15;;;2.42;;
11018;SDS011;5563;52.296;6.806;2023-04-12T00:38:51;9.43;;;2.75;;
11018;SDS011;5563;52.296;6.806;2023-04-12T00:41:24;5.43;;;2.15;;
11018;SDS011;5563;52.296;6.806;2023-04-12T00:43:58;7.80;;;3.00;;
11018;SDS011;5563;52.296;6.806;2023-04-12T00:46:25;6.47;;;2.35;;
11018;SDS011;5563;52.296;6.806;2023-04-12T00:48:58;7.82;;;2.45;;
11018;SDS011;5563;52.296;6.806;2023-04-12T00:51:32;6.90;;;2.33;;
11018;SDS011;5563;52.296;6.806;2023-04-12T00:53:59;7.50;;;2.15;;
11018;SDS011;5563;52.296;6.806;2023-04-12T00:56:33;8.30;;;2.40;;
11018;SDS011;5563;52.296;6.806;2023-04-12T00:59:07;5.07;;;2.22;;
11018;SDS011;5563;52.296;6.806;2023-04-12T01:01:40;6.13;;;2.40;;
11018;SDS011;5563;52.296;6.806;2023-04-12T01:04:07;5.70;;;2.17;;
11018;SDS011;5563;52.296;6.806;2023-04-12T01:15:06;5.30;;;1.98;;
11018;SDS011;5563;52.296;6.806;2023-04-12T01:18:07;6.18;;;2.05;;
11018;SDS011;5563;52.296;6.806;2023-04-12T01:20:55;7.28;;;2.03;;
11018;SDS011;5563;52.296;6.806;2023-04-12T01:29:20;4.88;;;2.33;;
11018;SDS011;5563;52.296;6.806;2023-04-12T01:34:45;3.55;;;1.52;;
11018;SDS011;5563;52.296;6.806;2023-04-12T01:37:12;6.25;;;1.98;;
11018;SDS011;5563;52.296;6.806;2023-04-12T01:39:48;3.88;;;1.88;;
11018;SDS011;5563;52.296;6.806;2023-04-12T01:42:18;4.28;;;1.60;;
11018;SDS011;5563;52.296;6.806;2023-04-12T01:44:52;5.35;;;2.55;;
11018;SDS011;5563;52.296;6.806;2023-04-12T01:47:18;5.38;;;2.20;;
11018;SDS011;5563;52.296;6.806;2023-04-12T01:55:36;4.20;;;1.75;;
11018;SDS011;5563;52.296;6.806;2023-04-12T01:58:05;5.22;;;1.95;;
11018;SDS011;5563;52.296;6.806;2023-04-12T02:00:40;3.80;;;1.70;;
11018;SDS011;5563;52.296;6.806;2023-04-12T02:03:09;4.03;;;1.45;;
11018;SDS011;5563;52.296;6.806;2023-04-12T02:05:44;5.13;;;2.33;;
11018;SDS011;5563;52.296;6.806;2023-04-12T02:08:11;3.40;;;1.73;;
11018;SDS011;5563;52.296;6.806;2023-04-12T02:10:45;3.80;;;1.73;;
11018;SDS011;5563;52.296;6.806;2023-04-12T02:13:11;4.60;;;1.90;;
11018;SDS011;5563;52.296;6.806;2023-04-12T02:15:45;3.63;;;1.83;;
11018;SDS011;5563;52.296;6.806;2023-04-12T02:18:12;5.35;;;1.60;;
11018;SDS011;5563;52.296;6.806;2023-04-12T02:20:39;2.40;;;1.55;;
11018;SDS011;5563;52.296;6.806;2023-04-12T02:23:13;4.15;;;1.90;;
11018;SDS011;5563;52.296;6.806;2023-04-12T02:25:46;3.38;;;1.67;;
11018;SDS011;5563;52.296;6.806;2023-04-12T02:28:20;6.75;;;2.08;;
11018;SDS011;5563;52.296;6.806;2023-04-12T02:30:55;4.15;;;1.90;;
11018;SDS011;5563;52.296;6.806;2023-04-12T02:33:28;7.30;;;2.05;;
11018;SDS011;5563;52.296;6.806;2023-04-12T02:36:08;4.25;;;2.47;;
11018;SDS011;5563;52.296;6.806;2023-04-12T02:38:43;5.78;;;2.10;;
11018;SDS011;5563;52.296;6.806;2023-04-12T02:41:15;5.30;;;2.22;;
11018;SDS011;5563;52.296;6.806;2023-04-12T02:43:49;3.60;;;1.63;;
11018;SDS011;5563;52.296;6.806;2023-04-12T02:46:18;3.70;;;1.60;;
11018;SDS011;5563;52.296;6.806;2023-04-12T02:48:56;3.45;;;2.03;;
11018;SDS011;5563;52.296;6.806;2023-04-12T02:51:23;6.53;;;1.90;;
11018;SDS011;5563;52.296;6.806;2023-04-12T02:53:56;4.45;;;1.83;;
11018;SDS011;5563;52.296;6.806;2023-04-12T02:56:23;5.20;;;1.90;;
11018;SDS011;5563;52.296;6.806;2023-04-12T02:58:56;5.45;;;1.85;;
11018;SDS011;5563;52.296;6.806;2023-04-12T03:01:29;6.32;;;1.70;;
11018;SDS011;5563;52.296;6.806;2023-04-12T03:03:57;7.32;;;2.05;;
11018;SDS011;5563;52.296;6.806;2023-04-12T03:06:30;4.55;;;1.95;;
11018;SDS011;5563;52.296;6.806;2023-04-12T03:09:04;4.50;;;1.80;;
11018;SDS011;5563;52.296;6.806;2023-04-12T03:11:30;3.85;;;1.92;;
11018;SDS011;5563;52.296;6.806;2023-04-12T03:13:57;3.17;;;1.88;;
11018;SDS011;5563;52.296;6.806;2023-04-12T03:16:31;3.75;;;1.73;;
11018;SDS011;5563;52.296;6.806;2023-04-12T03:18:57;3.88;;;1.70;;
11018;SDS011;5563;52.296;6.806;2023-04-12T03:21:31;4.97;;;2.15;;
11018;SDS011;5563;52.296;6.806;2023-04-12T03:23:58;4.30;;;1.67;;
11018;SDS011;5563;52.296;6.806;2023-04-12T03:26:33;5.88;;;1.92;;
11018;SDS011;5563;52.296;6.806;2023-04-12T03:29:00;5.10;;;2.00;;
11018;SDS011;5563;52.296;6.806;2023-04-12T03:31:40;5.07;;;2.03;;
11018;SDS011;5563;52.296;6.806;2023-04-12T03:34:07;4.30;;;2.15;;
11018;SDS011;5563;52.296;6.806;2023-04-12T03:36:47;4.43;;;1.65;;
11018;SDS011;5563;52.296;6.806;2023-04-12T03:39:14;3.47;;;2.00;;
11018;SDS011;5563;52.296;6.806;2023-04-12T03:41:41;7.00;;;2.50;;
11018;SDS011;5563;52.296;6.806;2023-04-12T03:44:21;4.65;;;2.30;;
11018;SDS011;5563;52.296;6.806;2023-04-12T03:46:54;3.85;;;1.90;;
11018;SDS011;5563;52.296;6.806;2023-04-12T03:49:21;3.97;;;2.45;;
11018;SDS011;5563;52.296;6.806;2023-04-12T03:51:54;5.72;;;1.90;;
11018;SDS011;5563;52.296;6.806;2023-04-12T03:54:27;4.40;;;2.17;;
11018;SDS011;5563;52.296;6.806;2023-04-12T03:57:00;5.40;;;2.20;;
11018;SDS011;5563;52.296;6.806;2023-04-12T03:59:27;5.32;;;1.95;;
11018;SDS011;5563;52.296;6.806;2023-04-12T04:02:01;4.32;;;1.80;;
11018;SDS011;5563;52.296;6.806;2023-04-12T04:04:34;4.15;;;1.92;;
11018;SDS011;5563;52.296;6.806;2023-04-12T04:07:03;3.95;;;1.70;;
11018;SDS011;5563;52.296;6.806;2023-04-12T04:09:36;2.50;;;1.80;;
11018;SDS011;5563;52.296;6.806;2023-04-12T04:12:02;4.80;;;1.80;;
11018;SDS011;5563;52.296;6.806;2023-04-12T04:14:36;6.10;;;1.52;;
11018;SDS011;5563;52.296;6.806;2023-04-12T04:17:02;2.72;;;1.40;;
11018;SDS011;5563;52.296;6.806;2023-04-12T04:19:36;5.03;;;1.95;;
11018;SDS011;5563;52.296;6.806;2023-04-12T04:22:10;3.80;;;1.33;;
11018;SDS011;5563;52.296;6.806;2023-04-12T04:24:45;3.08;;;1.52;;
11018;SDS011;5563;52.296;6.806;2023-04-12T04:27:13;2.65;;;1.50;;
11018;SDS011;5563;52.296;6.806;2023-04-12T04:29:47;3.53;;;1.45;;
11018;SDS011;5563;52.296;6.806;2023-04-12T04:32:20;1.67;;;1.20;;
11018;SDS011;5563;52.296;6.806;2023-04-12T04:35:01;4.13;;;1.88;;
11018;SDS011;5563;52.296;6.806;2023-04-12T04:37:34;3.78;;;1.27;;
11018;SDS011;5563;52.296;6.806;2023-04-12T04:40:01;3.83;;;1.60;;
11018;SDS011;5563;52.296;6.806;2023-04-12T04:42:40;4.32;;;1.90;;
11018;SDS011;5563;52.296;6.806;2023-04-12T04:45:15;2.75;;;1.58;;
11018;SDS011;5563;52.296;6.806;2023-04-12T04:47:49;2.40;;;1.42;;
11018;SDS011;5563;52.296;6.806;2023-04-12T04:50:16;5.50;;;1.50;;
11018;SDS011;5563;52.296;6.806;2023-04-12T04:52:50;4.40;;;1.90;;
11018;SDS011;5563;52.296;6.806;2023-04-12T04:55:23;3.78;;;1.60;;
11018;SDS011;5563;52.296;6.806;2023-04-12T04:57:51;2.25;;;1.45;;
11018;SDS011;5563;52.296;6.806;2023-04-12T05:00:17;1.58;;;1.27;;
11018;SDS011;5563;52.296;6.806;2023-04-12T05:02:51;2.42;;;1.65;;
11018;SDS011;5563;52.296;6.806;2023-04-12T05:05:18;2.85;;;1.60;;
11018;SDS011;5563;52.296;6.806;2023-04-12T05:07:55;2.53;;;1.52;;
11018;SDS011;5563;52.296;6.806;2023-04-12T05:10:29;3.30;;;1.55;;
11018;SDS011;5563;52.296;6.806;2023-04-12T05:12:55;2.42;;;1.75;;
11018;SDS011;5563;52.296;6.806;2023-04-12T05:15:29;3.20;;;1.45;;
11018;SDS011;5563;52.296;6.806;2023-04-12T05:17:57;5.95;;;1.75;;
11018;SDS011;5563;52.296;6.806;2023-04-12T05:20:30;5.55;;;1.95;;
11018;SDS011;5563;52.296;6.806;2023-04-12T05:23:04;3.80;;;1.60;;
11018;SDS011;5563;52.296;6.806;2023-04-12T05:25:42;2.10;;;1.67;;
11018;SDS011;5563;52.296;6.806;2023-04-12T05:28:10;3.30;;;1.70;;
11018;SDS011;5563;52.296;6.806;2023-04-12T05:30:46;2.63;;;1.58;;
11018;SDS011;5563;52.296;6.806;2023-04-12T05:33:19;3.42;;;1.73;;
11018;SDS011;5563;52.296;6.806;2023-04-12T05:35:53;4.07;;;2.00;;
11018;SDS011;5563;52.296;6.806;2023-04-12T05:38:26;3.20;;;1.70;;
11018;SDS011;5563;52.296;6.806;2023-04-12T05:40:59;2.20;;;1.73;;
11018;SDS011;5563;52.296;6.806;2023-04-12T05:43:29;3.50;;;1.70;;
11018;SDS011;5563;52.296;6.806;2023-04-12T05:46:03;4.35;;;1.70;;
11018;SDS011;5563;52.296;6.806;2023-04-12T05:48:39;2.28;;;1.70;;
11018;SDS011;5563;52.296;6.806;2023-04-12T05:51:12;3.65;;;1.83;;
11018;SDS011;5563;52.296;6.806;2023-04-12T05:53:59;5.80;;;1.88;;
11018;SDS011;5563;52.296;6.806;2023-04-12T05:56:33;3.08;;;1.95;;
11018;SDS011;5563;52.296;6.806;2023-04-12T05:58:59;6.18;;;2.50;;
11018;SDS011;5563;52.296;6.806;2023-04-12T06:01:27;5.10;;;2.00;;
11018;SDS011;5563;52.296;6.806;2023-04-12T06:04:07;4.13;;;2.10;;
11018;SDS011;5563;52.296;6.806;2023-04-12T06:06:34;2.60;;;1.60;;
11018;SDS011;5563;52.296;6.806;2023-04-12T06:09:07;5.20;;;1.92;;
11018;SDS011;5563;52.296;6.806;2023-04-12T06:11:35;3.47;;;1.95;;
11018;SDS011;5563;52.296;6.806;2023-04-12T06:14:11;3.25;;;1.92;;
11018;SDS011;5563;52.296;6.806;2023-04-12T06:16:37;3.85;;;1.83;;
11018;SDS011;5563;52.296;6.806;2023-04-12T06:19:11;6.97;;;2.10;;
11018;SDS011;5563;52.296;6.806;2023-04-12T06:21:37;2.90;;;1.83;;
11018;SDS011;5563;52.296;6.806;2023-04-12T06:24:11;4.55;;;1.85;;
11018;SDS011;5563;52.296;6.806;2023-04-12T06:26:37;2.78;;;1.70;;
11018;SDS011;5563;52.296;6.806;2023-04-12T06:29:11;4.28;;;2.13;;
11018;SDS011;5563;52.296;6.806;2023-04-12T06:31:44;3.47;;;1.75;;
11018;SDS011;5563;52.296;6.806;2023-04-12T06:34:23;2.80;;;1.60;;
11018;SDS011;5563;52.296;6.806;2023-04-12T06:36:50;2.65;;;1.80;;
11018;SDS011;5563;52.296;6.806;2023-04-12T06:39:24;2.42;;;1.75;;
11018;SDS011;5563;52.296;6.806;2023-04-12T06:41:57;4.55;;;1.70;;
11018;SDS011;5563;52.296;6.806;2023-04-12T06:44:24;2.60;;;1.90;;
11018;SDS011;5563;52.296;6.806;2023-04-12T06:46:59;3.30;;;2.00;;
11018;SDS011;5563;52.296;6.806;2023-04-12T06:49:26;3.35;;;2.25;;
11018;SDS011;5563;52.296;6.806;2023-04-12T06:51:59;3.65;;;2.40;;
11018;SDS011;5563;52.296;6.806;2023-04-12T06:54:34;3.17;;;2.40;;
11018;SDS011;5563;52.296;6.806;2023-04-12T06:57:02;2.78;;;2.03;;
11018;SDS011;5563;52.296;6.806;2023-04-12T06:59:35;3.95;;;1.90;;
11018;SDS011;5563;52.296;6.806;2023-04-12T07:02:08;3.45;;;2.22;;
11018;SDS011;5563;52.296;6.806;2023-04-12T07:04:35;3.60;;;2.30;;
11018;SDS011;5563;52.296;6.806;2023-04-12T07:07:08;4.03;;;2.35;;
11018;SDS011;5563;52.296;6.806;2023-04-12T07:09:35;5.00;;;2.47;;
11018;SDS011;5563;52.296;6.806;2023-04-12T07:12:09;2.20;;;2.00;;
11018;SDS011;5563;52.296;6.806;2023-04-12T07:14:36;3.40;;;2.10;;
11018;SDS011;5563;52.296;6.806;2023-04-12T07:17:02;2.47;;;2.28;;
11018;SDS011;5563;52.296;6.806;2023-04-12T07:19:36;3.97;;;2.28;;
11018;SDS011;5563;52.296;6.806;2023-04-12T07:22:03;3.88;;;2.33;;
11018;SDS011;5563;52.296;6.806;2023-04-12T07:24:39;2.83;;;2.28;;
11018;SDS011;5563;52.296;6.806;2023-04-12T07:27:05;2.70;;;2.50;;
11018;SDS011;5563;52.296;6.806;2023-04-12T07:29:39;3.33;;;2.42;;
11018;SDS011;5563;52.296;6.806;2023-04-12T07:32:06;4.25;;;2.90;;
11018;SDS011;5563;52.296;6.806;2023-04-12T07:34:41;3.08;;;2.38;;
11018;SDS011;5563;52.296;6.806;2023-04-12T07:37:21;4.70;;;3.20;;
11018;SDS011;5563;52.296;6.806;2023-04-12T07:39:47;3.25;;;2.95;;
11018;SDS011;5563;52.296;6.806;2023-04-12T07:42:21;2.58;;;2.33;;
11018;SDS011;5563;52.296;6.806;2023-04-12T07:44:54;4.15;;;2.70;;
11018;SDS011;5563;52.296;6.806;2023-04-12T07:47:28;4.53;;;3.10;;
11018;SDS011;5563;52.296;6.806;2023-04-12T07:49:55;3.40;;;2.63;;
11018;SDS011;5563;52.296;6.806;2023-04-12T07:52:29;3.33;;;2.90;;
11018;SDS011;5563;52.296;6.806;2023-04-12T07:54:56;3.17;;;2.88;;
11018;SDS011;5563;52.296;6.806;2023-04-12T07:57:29;4.03;;;3.00;;
11018;SDS011;5563;52.296;6.806;2023-04-12T07:59:59;3.10;;;2.80;;
11018;SDS011;5563;52.296;6.806;2023-04-12T08:02:32;3.60;;;3.00;;
11018;SDS011;5563;52.296;6.806;2023-04-12T08:04:59;3.60;;;2.80;;
11018;SDS011;5563;52.296;6.806;2023-04-12T08:07:32;3.40;;;2.88;;
11018;SDS011;5563;52.296;6.806;2023-04-12T08:09:59;3.65;;;3.35;;
11018;SDS011;5563;52.296;6.806;2023-04-12T08:12:33;3.42;;;3.13;;
11018;SDS011;5563;52.296;6.806;2023-04-12T08:15:00;3.03;;;2.78;;
11018;SDS011;5563;52.296;6.806;2023-04-12T08:17:33;5.85;;;3.03;;
11018;SDS011;5563;52.296;6.806;2023-04-12T08:20:00;4.47;;;3.35;;
11018;SDS011;5563;52.296;6.806;2023-04-12T08:22:27;6.28;;;3.25;;
11018;SDS011;5563;52.296;6.806;2023-04-12T08:25:00;3.75;;;3.40;;
11018;SDS011;5563;52.296;6.806;2023-04-12T08:27:28;3.78;;;3.25;;
11018;SDS011;5563;52.296;6.806;2023-04-12T08:30:01;4.25;;;3.85;;
11018;SDS011;5563;52.296;6.806;2023-04-12T08:32:29;4.85;;;3.60;;
11018;SDS011;5563;52.296;6.806;2023-04-12T08:35:08;5.13;;;4.07;;
11018;SDS011;5563;52.296;6.806;2023-04-12T08:37:35;4.63;;;4.10;;
11018;SDS011;5563;52.296;6.806;2023-04-12T08:40:09;4.70;;;4.00;;
11018;SDS011;5563;52.296;6.806;2023-04-12T08:42:36;4.13;;;3.72;;
11018;SDS011;5563;52.296;6.806;2023-04-12T08:45:10;5.43;;;4.20;;
11018;SDS011;5563;52.296;6.806;2023-04-12T08:47:41;4.80;;;4.40;;
11018;SDS011;5563;52.296;6.806;2023-04-12T08:50:16;5.30;;;4.85;;
11018;SDS011;5563;52.296;6.806;2023-04-12T08:52:51;5.95;;;5.45;;
11018;SDS011;5563;52.296;6.806;2023-04-12T08:55:18;5.85;;;5.35;;
11018;SDS011;5563;52.296;6.806;2023-04-12T08:57:53;6.60;;;6.10;;
11018;SDS011;5563;52.296;6.806;2023-04-12T09:00:30;6.55;;;6.05;;
11018;SDS011;5563;52.296;6.806;2023-04-12T09:03:03;7.60;;;6.40;;
11018;SDS011;5563;52.296;6.806;2023-04-12T09:05:31;6.85;;;6.25;;
11018;SDS011;5563;52.296;6.806;2023-04-12T09:08:04;6.78;;;6.05;;
11018;SDS011;5563;52.296;6.806;2023-04-12T09:10:31;6.75;;;6.13;;
11018;SDS011;5563;52.296;6.806;2023-04-12T09:13:09;7.93;;;7.22;;
11018;SDS011;5563;52.296;6.806;2023-04-12T09:15:48;8.20;;;7.47;;
11018;SDS011;5563;52.296;6.806;2023-04-12T09:18:22;9.07;;;8.18;;
11018;SDS011;5563;52.296;6.806;2023-04-12T09:20:49;9.07;;;8.27;;
11018;SDS011;5563;52.296;6.806;2023-04-12T09:23:23;9.48;;;8.68;;
11018;SDS011;5563;52.296;6.806;2023-04-12T09:25:50;9.02;;;8.13;;
11018;SDS011;5563;52.296;6.806;2023-04-12T09:28:27;10.15;;;8.98;;
11018;SDS011;5563;52.296;6.806;2023-04-12T09:30:56;9.90;;;8.93;;
11018;SDS011;5563;52.296;6.806;2023-04-12T09:33:34;9.88;;;8.98;;
11018;SDS011;5563;52.296;6.806;2023-04-12T09:36:09;10.48;;;9.27;;
11018;SDS011;5563;52.296;6.806;2023-04-12T09:38:59;9.88;;;8.88;;
11018;SDS011;5563;52.296;6.806;2023-04-12T09:41:27;11.07;;;10.10;;
11018;SDS011;5563;52.296;6.806;2023-04-12T09:44:02;10.20;;;9.20;;
11018;SDS011;5563;52.296;6.806;2023-04-12T09:46:30;10.45;;;9.55;;
11018;SDS011;5563;52.296;6.806;2023-04-12T09:49:03;8.82;;;8.13;;
11018;SDS011;5563;52.296;6.806;2023-04-12T09:51:31;10.13;;;9.32;;
11018;SDS011;5563;52.296;6.806;2023-04-12T09:54:07;9.15;;;8.40;;
11018;SDS011;5563;52.296;6.806;2023-04-12T09:56:41;8.02;;;7.25;;
11018;SDS011;5563;52.296;6.806;2023-04-12T09:59:09;6.72;;;6.03;;
11018;SDS011;5563;52.296;6.806;2023-04-12T10:01:45;6.20;;;5.60;;
11018;SDS011;5563;52.296;6.806;2023-04-12T10:04:12;6.82;;;6.07;;
11018;SDS011;5563;52.296;6.806;2023-04-12T10:06:46;6.20;;;5.57;;
11018;SDS011;5563;52.296;6.806;2023-04-12T10:09:14;7.22;;;5.57;;
11018;SDS011;5563;52.296;6.806;2023-04-12T10:11:47;5.60;;;5.10;;
11018;SDS011;5563;52.296;6.806;2023-04-12T10:14:17;5.47;;;4.95;;
11018;SDS011;5563;52.296;6.806;2023-04-12T10:16:56;5.80;;;5.13;;
11018;SDS011;5563;52.296;6.806;2023-04-12T10:19:25;6.47;;;5.38;;
11018;SDS011;5563;52.296;6.806;2023-04-12T10:22:01;7.30;;;4.97;;
11018;SDS011;5563;52.296;6.806;2023-04-12T10:24:28;5.13;;;4.65;;
11018;SDS011;5563;52.296;6.806;2023-04-12T10:27:02;8.63;;;4.85;;
11018;SDS011;5563;52.296;6.806;2023-04-12T10:29:30;6.38;;;4.43;;
11018;SDS011;5563;52.296;6.806;2023-04-12T10:32:22;7.43;;;4.60;;
11018;SDS011;5563;52.296;6.806;2023-04-12T10:35:07;7.65;;;4.28;;
11018;SDS011;5563;52.296;6.806;2023-04-12T10:40:27;6.68;;;4.53;;
11018;SDS011;5563;52.296;6.806;2023-04-12T10:45:48;6.65;;;4.15;;
11018;SDS011;5563;52.296;6.806;2023-04-12T10:51:22;6.57;;;4.03;;
11018;SDS011;5563;52.296;6.806;2023-04-12T10:56:42;7.40;;;3.83;;
11018;SDS011;5563;52.296;6.806;2023-04-12T10:59:17;5.47;;;3.47;;
11018;SDS011;5563;52.296;6.806;2023-04-12T11:02:07;7.63;;;4.13;;
11018;SDS011;5563;52.296;6.806;2023-04-12T11:05:01;9.73;;;4.00;;
11018;SDS011;5563;52.296;6.806;2023-04-12T11:07:42;7.63;;;3.40;;
11018;SDS011;5563;52.296;6.806;2023-04-12T11:10:16;5.65;;;2.40;;
11018;SDS011;5563;52.296;6.806;2023-04-12T11:12:52;8.48;;;3.33;;
11018;SDS011;5563;52.296;6.806;2023-04-12T11:15:29;9.00;;;3.53;;
11018;SDS011;5563;52.296;6.806;2023-04-12T11:18:05;7.07;;;2.90;;
11018;SDS011;5563;52.296;6.806;2023-04-12T11:20:32;8.48;;;3.28;;
11018;SDS011;5563;52.296;6.806;2023-04-12T11:23:06;6.03;;;2.97;;
11018;SDS011;5563;52.296;6.806;2023-04-12T11:25:36;8.82;;;2.70;;
11018;SDS011;5563;52.296;6.806;2023-04-12T11:28:09;8.88;;;3.40;;
11018;SDS011;5563;52.296;6.806;2023-04-12T11:30:56;8.65;;;3.15;;
11018;SDS011;5563;52.296;6.806;2023-04-12T11:33:34;7.25;;;2.92;;
11018;SDS011;5563;52.296;6.806;2023-04-12T11:36:08;6.60;;;2.80;;
11018;SDS011;5563;52.296;6.806;2023-04-12T11:38:46;6.82;;;2.60;;
11018;SDS011;5563;52.296;6.806;2023-04-12T11:41:13;9.32;;;3.10;;
11018;SDS011;5563;52.296;6.806;2023-04-12T11:43:46;6.35;;;2.10;;
11018;SDS011;5563;52.296;6.806;2023-04-12T11:46:13;7.30;;;2.75;;
11018;SDS011;5563;52.296;6.806;2023-04-12T11:48:48;5.32;;;2.35;;
11018;SDS011;5563;52.296;6.806;2023-04-12T11:51:19;12.43;;;2.70;;
11018;SDS011;5563;52.296;6.806;2023-04-12T11:53:57;7.43;;;2.63;;
11018;SDS011;5563;52.296;6.806;2023-04-12T11:56:25;7.32;;;2.78;;
11018;SDS011;5563;52.296;6.806;2023-04-12T11:58:59;6.25;;;3.08;;
11018;SDS011;5563;52.296;6.806;2023-04-12T12:01:26;9.23;;;3.20;;
11018;SDS011;5563;52.296;6.806;2023-04-12T12:04:01;8.23;;;2.97;;
11018;SDS011;5563;52.296;6.806;2023-04-12T12:06:34;8.85;;;3.58;;
11018;SDS011;5563;52.296;6.806;2023-04-12T12:09:02;7.80;;;2.90;;
11018;SDS011;5563;52.296;6.806;2023-04-12T12:11:36;8.77;;;3.10;;
11018;SDS011;5563;52.296;6.806;2023-04-12T12:14:03;9.68;;;3.28;;
11018;SDS011;5563;52.296;6.806;2023-04-12T12:16:39;6.93;;;2.80;;
11018;SDS011;5563;52.296;6.806;2023-04-12T12:19:13;6.45;;;2.90;;
11018;SDS011;5563;52.296;6.806;2023-04-12T12:21:46;9.45;;;3.47;;
11018;SDS011;5563;52.296;6.806;2023-04-12T12:24:13;5.95;;;2.70;;
11018;SDS011;5563;52.296;6.806;2023-04-12T12:26:47;9.73;;;3.30;;
11018;SDS011;5563;52.296;6.806;2023-04-12T12:29:16;10.70;;;3.50;;
11018;SDS011;5563;52.296;6.806;2023-04-12T12:31:50;6.40;;;2.75;;
11018;SDS011;5563;52.296;6.806;2023-04-12T12:34:25;8.75;;;3.00;;
11018;SDS011;5563;52.296;6.806;2023-04-12T12:36:58;9.48;;;3.10;;
11018;SDS011;5563;52.296;6.806;2023-04-12T12:39:25;10.15;;;3.53;;
11018;SDS011;5563;52.296;6.806;2023-04-12T12:41:58;9.40;;;3.05;;
11018;SDS011;5563;52.296;6.806;2023-04-12T12:44:32;9.80;;;2.63;;
11018;SDS011;5563;52.296;6.806;2023-04-12T12:47:02;7.93;;;2.97;;
11018;SDS011;5563;52.296;6.806;2023-04-12T12:49:40;8.95;;;2.67;;
11018;SDS011;5563;52.296;6.806;2023-04-12T12:52:06;4.88;;;1.63;;
11018;SDS011;5563;52.296;6.806;2023-04-12T12:54:43;6.00;;;1.90;;
11018;SDS011;5563;52.296;6.806;2023-04-12T12:57:10;6.30;;;2.13;;
11018;SDS011;5563;52.296;6.806;2023-04-12T12:59:43;6.30;;;1.92;;
11018;SDS011;5563;52.296;6.806;2023-04-12T13:02:16;6.65;;;1.90;;
11018;SDS011;5563;52.296;6.806;2023-04-12T13:04:51;7.32;;;2.03;;
11018;SDS011;5563;52.296;6.806;2023-04-12T13:07:18;5.90;;;2.33;;
11018;SDS011;5563;52.296;6.806;2023-04-12T13:09:52;6.65;;;2.42;;
11018;SDS011;5563;52.296;6.806;2023-04-12T13:12:25;5.35;;;2.47;;
11018;SDS011;5563;52.296;6.806;2023-04-12T13:14:58;7.95;;;2.55;;
11018;SDS011;5563;52.296;6.806;2023-04-12T13:17:38;6.47;;;2.20;;
11018;SDS011;5563;52.296;6.806;2023-04-12T13:20:11;5.88;;;2.10;;
11018;SDS011;5563;52.296;6.806;2023-04-12T13:22:45;6.30;;;2.40;;
11018;SDS011;5563;52.296;6.806;2023-04-12T13:25:18;7.93;;;2.88;;
11018;SDS011;5563;52.296;6.806;2023-04-12T13:27:47;4.90;;;2.70;;
11018;SDS011;5563;52.296;6.806;2023-04-12T13:30:14;7.88;;;2.45;;
11018;SDS011;5563;52.296;6.806;2023-04-12T13:32:48;9.85;;;3.20;;
11018;SDS011;5563;52.296;6.806;2023-04-12T13:35:15;7.45;;;3.05;;
11018;SDS011;5563;52.296;6.806;2023-04-12T13:37:57;7.53;;;2.65;;
11018;SDS011;5563;52.296;6.806;2023-04-12T13:40:24;6.95;;;2.90;;
11018;SDS011;5563;52.296;6.806;2023-04-12T13:42:57;11.85;;;3.00;;
11018;SDS011;5563;52.296;6.806;2023-04-12T13:45:24;9.90;;;3.22;;
11018;SDS011;5563;52.296;6.806;2023-04-12T13:47:59;11.60;;;3.15;;
11018;SDS011;5563;52.296;6.806;2023-04-12T13:50:26;8.25;;;2.78;;
11018;SDS011;5563;52.296;6.806;2023-04-12T13:52:59;8.45;;;3.40;;
11018;SDS011;5563;52.296;6.806;2023-04-12T13:55:26;10.32;;;3.65;;
11018;SDS011;5563;52.296;6.806;2023-04-12T13:58:00;8.45;;;2.90;;
11018;SDS011;5563;52.296;6.806;2023-04-12T14:00:27;8.45;;;2.90;;
11018;SDS011;5563;52.296;6.806;2023-04-12T14:03:00;6.35;;;2.78;;
11018;SDS011;5563;52.296;6.806;2023-04-12T14:05:34;5.95;;;2.10;;
11018;SDS011;5563;52.296;6.806;2023-04-12T14:08:01;5.72;;;1.98;;
11018;SDS011;5563;52.296;6.806;2023-04-12T14:10:34;7.55;;;2.47;;
11018;SDS011;5563;52.296;6.806;2023-04-12T14:13:01;4.30;;;1.85;;
11018;SDS011;5563;52.296;6.806;2023-04-12T14:15:34;4.25;;;1.92;;
11018;SDS011;5563;52.296;6.806;2023-04-12T14:18:01;7.13;;;2.60;;
11018;SDS011;5563;52.296;6.806;2023-04-12T14:20:34;5.57;;;2.00;;
11018;SDS011;5563;52.296;6.806;2023-04-12T14:23:01;4.35;;;1.70;;
11018;SDS011;5563;52.296;6.806;2023-04-12T14:25:37;4.47;;;2.17;;
11018;SDS011;5563;52.296;6.806;2023-04-12T14:28:11;6.47;;;1.90;;
11018;SDS011;5563;52.296;6.806;2023-04-12T14:30:51;5.07;;;1.70;;
11018;SDS011;5563;52.296;6.806;2023-04-12T14:33:31;4.80;;;2.03;;
11018;SDS011;5563;52.296;6.806;2023-04-12T14:36:12;4.35;;;1.90;;
11018;SDS011;5563;52.296;6.806;2023-04-12T14:38:45;6.45;;;2.35;;
11018;SDS011;5563;52.296;6.806;2023-04-12T14:41:12;6.57;;;2.25;;
11018;SDS011;5563;52.296;6.806;2023-04-12T14:43:45;5.75;;;2.00;;
11018;SDS011;5563;52.296;6.806;2023-04-12T14:46:12;7.28;;;2.45;;
11018;SDS011;5563;52.296;6.806;2023-04-12T14:48:45;6.28;;;2.65;;
11018;SDS011;5563;52.296;6.806;2023-04-12T14:51:12;9.25;;;3.42;;
11018;SDS011;5563;52.296;6.806;2023-04-12T14:53:45;5.82;;;2.45;;
11018;SDS011;5563;52.296;6.806;2023-04-12T14:56:21;7.95;;;2.60;;
11018;SDS011;5563;52.296;6.806;2023-04-12T14:59:02;8.02;;;3.22;;
11018;SDS011;5563;52.296;6.806;2023-04-12T15:01:29;13.90;;;3.10;;
11018;SDS011;5563;52.296;6.806;2023-04-12T15:04:02;7.43;;;3.67;;
11018;SDS011;5563;52.296;6.806;2023-04-12T15:06:32;7.10;;;3.47;;
11018;SDS011;5563;52.296;6.806;2023-04-12T15:09:14;5.47;;;2.88;;
11018;SDS011;5563;52.296;6.806;2023-04-12T15:11:49;7.43;;;3.53;;
11018;SDS011;5563;52.296;6.806;2023-04-12T15:14:21;8.13;;;3.65;;
11018;SDS011;5563;52.296;6.806;2023-04-12T15:16:55;9.98;;;4.32;;
11018;SDS011;5563;52.296;6.806;2023-04-12T15:19:22;10.60;;;3.60;;
11018;SDS011;5563;52.296;6.806;2023-04-12T15:21:55;11.10;;;3.72;;
11018;SDS011;5563;52.296;6.806;2023-04-12T15:24:22;6.80;;;3.17;;
11018;SDS011;5563;52.296;6.806;2023-04-12T15:26:56;9.82;;;3.15;;
11018;SDS011;5563;52.296;6.806;2023-04-12T15:29:23;8.80;;;3.47;;
11018;SDS011;5563;52.296;6.806;2023-04-12T15:31:58;8.90;;;3.60;;
11018;SDS011;5563;52.296;6.806;2023-04-12T15:34:25;7.32;;;3.63;;
11018;SDS011;5563;52.296;6.806;2023-04-12T15:37:00;9.18;;;3.30;;
11018;SDS011;5563;52.296;6.806;2023-04-12T15:39:27;7.13;;;3.00;;
11018;SDS011;5563;52.296;6.806;2023-04-12T15:42:01;8.15;;;3.42;;
11018;SDS011;5563;52.296;6.806;2023-04-12T15:44:35;5.95;;;3.30;;
11018;SDS011;5563;52.296;6.806;2023-04-12T15:47:02;4.20;;;2.50;;
11018;SDS011;5563;52.296;6.806;2023-04-12T15:49:38;5.45;;;2.55;;
11018;SDS011;5563;52.296;6.806;2023-04-12T15:52:05;8.98;;;2.60;;
11018;SDS011;5563;52.296;6.806;2023-04-12T15:54:38;4.50;;;2.03;;
11018;SDS011;5563;52.296;6.806;2023-04-12T15:57:09;8.07;;;1.80;;
11018;SDS011;5563;52.296;6.806;2023-04-12T15:59:43;6.00;;;2.20;;
11018;SDS011;5563;52.296;6.806;2023-04-12T16:02:10;10.05;;;2.40;;
11018;SDS011;5563;52.296;6.806;2023-04-12T16:04:43;7.00;;;1.73;;